Time;durP1;ratioP1;P1;durP2;ratioP2;P2;SDS_P1;SDS_P2;PMS_P1;PMS_P2;Temp;Humidity;BMP_temperature;BMP_pressure;BME280_temperature;BME280_humidity;BME280_pressure;Samples;Min_cycle;Max_cycle;Signal;HPM_P1;HPM_P2
2022/04/20 00:00:51;;;;;;;4.58;3.52;;;;;;;7.91;63.39;99801.35;1692359;82;21019;-76
2022/04/20 00:03:18;;;;;;;4.95;3.22;;;;;;;7.92;63.46;99799.48;1697459;82;21035;-76
2022/04/20 00:05:46;;;;;;;4.67;3.30;;;;;;;7.94;63.57;99792.06;1680994;83;21505;-75
2022/04/20 00:08:13;;;;;;;5.60;4.10;;;;;;;7.94;63.49;99794.73;1683463;83;21058;-76
2022/04/20 00:10:41;;;;;;;5.75;4.08;;;;;;;7.94;63.38;99802.70;1687517;82;21299;-76
2022/04/20 00:13:08;;;;;;;5.53;3.70;;;;;;;7.94;63.43;99805.36;1690092;82;21570;-77
2022/04/20 00:15:35;;;;;;;6.35;4.25;;;;;;;7.94;63.47;99813.34;1687494;82;21110;-76
2022/04/20 00:18:04;;;;;;;6.47;4.60;;;;;;;7.94;63.51;99811.48;1697199;82;20973;-76
2022/04/20 00:20:31;;;;;;;5.75;4.17;;;;;;;7.99;63.49;99810.69;1672920;83;21588;-76
2022/04/20 00:23:00;;;;;;;8.58;5.37;;;;;;;7.99;63.31;99821.33;1692090;83;21266;-76
2022/04/20 00:25:28;;;;;;;7.12;4.42;;;;;;;8.00;63.30;99818.96;1688042;82;21049;-77
2022/04/20 00:27:55;;;;;;;6.75;4.47;;;;;;;7.99;63.02;99823.48;1704482;82;21074;-76
2022/04/20 00:30:22;;;;;;;6.95;5.12;;;;;;;7.97;63.04;99824.80;1695506;82;21814;-76
2022/04/20 00:32:50;;;;;;;7.67;5.53;;;;;;;7.95;62.95;99826.36;1686391;82;21097;-76
2022/04/20 00:35:17;;;;;;;4.97;3.65;;;;;;;7.95;62.93;99826.36;1660543;84;21163;-76
2022/04/20 00:37:47;;;;;;;5.20;3.60;;;;;;;7.90;62.80;99823.69;1664669;85;21087;-76
2022/04/20 00:40:17;;;;;;;5.78;3.80;;;;;;;7.87;62.98;99825.53;1666751;84;21035;-76
2022/04/20 00:42:45;;;;;;;5.60;3.90;;;;;;;7.89;62.99;99823.94;1650518;84;21081;-76
2022/04/20 00:45:12;;;;;;;6.22;4.42;;;;;;;7.92;63.06;99827.41;1691666;84;21442;-77
2022/04/20 00:47:45;;;;;;;6.37;4.03;;;;;;;7.94;63.07;99826.63;1657690;84;21076;-76
2022/04/20 00:50:14;;;;;;;5.85;4.10;;;;;;;7.98;63.05;99825.85;1664502;84;21656;-76
2022/04/20 00:52:41;;;;;;;5.35;4.00;;;;;;;8.02;63.02;99835.44;1672894;84;21058;-76
2022/04/20 00:55:10;;;;;;;5.17;3.70;;;;;;;8.01;62.97;99833.85;1695858;83;21271;-77
2022/04/20 00:57:39;;;;;;;5.83;4.20;;;;;;;8.02;62.83;99832.78;1693567;84;21649;-76
2022/04/20 01:00:08;;;;;;;5.28;3.98;;;;;;;8.00;62.62;99832.26;1697047;84;21095;-76
2022/04/20 01:02:38;;;;;;;6.07;4.20;;;;;;;8.00;62.60;99833.59;1709059;82;21095;-76
2022/04/20 01:05:06;;;;;;;5.40;3.98;;;;;;;8.00;62.61;99830.93;1682798;83;21077;-75
2022/04/20 01:07:49;;;;;;;5.92;3.83;;;;;;;7.99;62.59;99838.11;1697635;83;21067;-76
2022/04/20 01:10:19;;;;;;;5.12;3.75;;;;;;;7.99;62.51;99830.64;1684426;83;21027;-76
2022/04/20 01:13:05;;;;;;;5.28;3.77;;;;;;;7.96;62.49;99827.16;1655731;84;21861;-76
2022/04/20 01:15:37;;;;;;;4.70;3.72;;;;;;;7.93;62.48;99825.02;1666181;84;21550;-77
2022/04/20 01:18:15;;;;;;;5.85;3.60;;;;;;;7.91;62.52;99831.93;1688434;83;21156;-77
2022/04/20 01:20:52;;;;;;;5.30;3.95;;;;;;;7.90;62.52;99833.00;1686156;83;21173;-76
2022/04/20 01:23:21;;;;;;;5.12;3.60;;;;;;;7.89;62.48;99838.02;1659617;84;21599;-76
2022/04/20 01:25:52;;;;;;;4.70;3.47;;;;;;;7.92;62.50;99834.05;1678609;82;21257;-76
2022/04/20 01:28:25;;;;;;;6.47;3.47;;;;;;;7.93;62.40;99836.48;1683889;82;21089;-75
2022/04/20 01:30:57;;;;;;;6.65;3.85;;;;;;;7.94;62.36;99842.05;1685849;83;21070;-77
2022/04/20 01:33:44;;;;;;;6.40;3.50;;;;;;;7.90;62.31;99835.66;1681725;84;21106;-77
2022/04/20 01:36:12;;;;;;;5.80;3.92;;;;;;;7.89;62.38;99834.03;1544263;84;10000282;-77
2022/04/20 01:38:40;;;;;;;5.40;3.80;;;;;;;7.88;62.44;99835.10;1715005;82;21149;-77
2022/04/20 01:41:08;;;;;;;5.22;3.72;;;;;;;7.90;62.39;99838.85;1698971;82;21322;-77
2022/04/20 01:43:37;;;;;;;5.35;3.77;;;;;;;7.89;62.33;99832.70;1704788;83;21111;-77
2022/04/20 01:46:16;;;;;;;5.62;4.10;;;;;;;7.89;62.21;99831.91;1695841;82;21253;-76
2022/04/20 01:49:02;;;;;;;5.40;3.90;;;;;;;7.85;62.27;99827.63;1698568;82;21549;-76
2022/04/20 01:51:51;;;;;;;5.53;3.70;;;;;;;7.87;62.27;99824.73;1588158;89;21150;-76
2022/04/20 01:54:23;;;;;;;5.03;3.85;;;;;;;7.85;62.19;99822.85;1578736;88;21107;-76
2022/04/20 01:56:53;;;;;;;5.35;3.60;;;;;;;7.82;62.12;99824.69;1634051;83;21089;-76
2022/04/20 01:59:26;;;;;;;5.58;4.00;;;;;;;7.75;62.14;99825.71;1665879;83;21113;-76
2022/04/20 02:04:50;;;;;;;6.47;4.20;;;;;;;7.77;62.21;99837.97;1692929;83;21574;-77
2022/04/20 02:07:17;;;;;;;6.08;4.33;;;;;;;7.77;62.17;99836.11;1696024;83;21051;-78
2022/04/20 02:09:46;;;;;;;5.20;3.92;;;;;;;7.79;62.15;99839.82;1707803;83;21046;-77
2022/04/20 02:12:14;;;;;;;5.70;4.00;;;;;;;7.83;62.12;99840.91;1698814;83;22058;-77
2022/04/20 02:14:47;;;;;;;6.15;4.15;;;;;;;7.89;62.09;99839.89;1691313;83;21088;-78
2022/04/20 02:17:15;;;;;;;5.72;4.20;;;;;;;7.91;61.91;99837.78;1672601;83;21066;-77
2022/04/20 02:19:47;;;;;;;6.15;4.08;;;;;;;7.91;61.88;99838.58;1698459;82;21197;-76
2022/04/20 02:22:15;;;;;;;4.83;3.47;;;;;;;7.91;61.79;99836.45;1691172;83;21141;-76
2022/04/20 02:24:44;;;;;;;5.03;3.52;;;;;;;7.90;61.66;99837.52;1696984;83;21152;-77
2022/04/20 02:27:13;;;;;;;6.05;4.05;;;;;;;7.88;61.64;99832.98;1700223;82;21058;-77
2022/04/20 02:29:41;;;;;;;5.42;3.65;;;;;;;7.86;61.61;99841.72;1695793;83;21150;-77
2022/04/20 02:32:09;;;;;;;5.55;4.08;;;;;;;7.85;61.55;99838.80;1693574;82;21127;-77
2022/04/20 02:34:39;;;;;;;5.37;3.90;;;;;;;7.83;61.51;99839.58;1693488;83;21641;-78
2022/04/20 02:37:07;;;;;;;5.67;4.22;;;;;;;7.79;61.50;99837.16;1706847;82;21054;-77
2022/04/20 02:39:36;;;;;;;4.90;3.50;;;;;;;7.74;61.47;99839.27;1706652;82;21542;-77
2022/04/20 02:42:07;;;;;;;4.65;3.37;;;;;;;7.72;61.45;99844.03;1703289;83;21066;-77
2022/04/20 02:44:36;;;;;;;6.20;3.72;;;;;;;7.70;61.49;99841.64;1693483;83;21055;-77
2022/04/20 02:47:04;;;;;;;7.17;4.03;;;;;;;7.69;61.47;99838.69;1688550;84;22173;-77
2022/04/20 02:49:32;;;;;;;5.12;3.85;;;;;;;7.69;61.43;99833.91;1698410;83;21819;-76
2022/04/20 02:52:01;;;;;;;5.65;3.85;;;;;;;7.69;61.41;99833.37;1695236;83;21047;-77
2022/04/20 02:54:30;;;;;;;4.65;3.62;;;;;;;7.65;61.40;99831.49;1694802;83;21051;-77
2022/04/20 02:56:58;;;;;;;5.28;3.52;;;;;;;7.63;61.30;99839.70;1663874;83;21105;-77
2022/04/20 02:59:25;;;;;;;5.53;3.98;;;;;;;7.61;61.28;99834.39;1674452;84;21185;-76
2022/04/20 03:01:53;;;;;;;4.33;3.22;;;;;;;7.62;61.36;99838.11;1678119;83;21160;-76
2022/04/20 03:04:20;;;;;;;5.40;3.70;;;;;;;7.64;61.34;99841.33;1696962;83;21019;-76
2022/04/20 03:06:49;;;;;;;4.67;3.25;;;;;;;7.62;61.38;99837.31;1671906;84;21653;-78
2022/04/20 03:09:21;;;;;;;5.75;4.08;;;;;;;7.60;60.99;99839.41;1696788;83;21102;-78
2022/04/20 03:11:48;;;;;;;4.90;3.67;;;;;;;7.55;60.88;99845.51;1677738;84;21049;-78
2022/04/20 03:14:18;;;;;;;4.70;3.05;;;;;;;7.54;61.03;99847.90;1694567;84;21039;-78
2022/04/20 03:16:45;;;;;;;5.92;3.70;;;;;;;7.54;61.10;99847.90;1702907;83;21365;-78
2022/04/20 03:19:13;;;;;;;6.15;4.20;;;;;;;7.51;61.14;99843.89;1653996;84;21024;-78
2022/04/20 03:21:40;;;;;;;5.45;3.60;;;;;;;7.50;61.10;99849.44;1698659;84;21553;-77
2022/04/20 03:24:07;;;;;;;5.03;3.40;;;;;;;7.48;61.08;99854.22;1668046;84;21082;-76
2022/04/20 03:26:53;;;;;;;5.17;3.45;;;;;;;7.45;61.13;99850.74;1694174;83;21125;-76
2022/04/20 03:29:23;;;;;;;5.00;3.50;;;;;;;7.42;61.15;99852.05;1666257;84;21038;-76
2022/04/20 03:31:54;;;;;;;4.97;3.60;;;;;;;7.42;61.24;99853.91;1641286;85;21071;-76
2022/04/20 03:34:21;;;;;;;4.80;3.47;;;;;;;7.40;61.28;99848.03;1675903;84;21043;-76
2022/04/20 03:36:48;;;;;;;4.37;3.17;;;;;;;7.39;61.37;99849.09;1664401;85;21578;-77
2022/04/20 03:39:16;;;;;;;4.80;3.33;;;;;;;7.35;61.40;99849.33;1693397;83;21091;-76
2022/04/20 03:41:44;;;;;;;4.55;3.45;;;;;;;7.34;61.43;99855.17;1697446;82;21067;-76
2022/04/20 03:44:11;;;;;;;5.10;3.55;;;;;;;7.33;61.44;99848.77;1694459;83;21066;-76
2022/04/20 03:46:38;;;;;;;5.30;3.30;;;;;;;7.33;61.49;99856.21;1701524;82;21039;-76
2022/04/20 03:49:05;;;;;;;5.80;3.67;;;;;;;7.28;61.55;99864.95;1698935;83;20972;-76
2022/04/20 03:51:32;;;;;;;5.28;3.83;;;;;;;7.24;61.65;99854.56;1665067;84;21151;-77
2022/04/20 03:54:00;;;;;;;5.55;4.08;;;;;;;7.25;61.67;99856.15;1666810;84;21122;-76
2022/04/20 03:57:03;;;;;;;6.37;3.50;;;;;;;7.24;61.66;99855.88;1683982;83;21541;-76
2022/04/20 03:58:58;;;;;;;5.42;3.42;;;;;;;7.26;61.59;99852.44;1681024;83;21149;-76
2022/04/20 04:01:26;;;;;;;4.42;3.25;;;;;;;7.26;61.59;99848.98;1686514;83;21181;-76
2022/04/20 04:03:56;;;;;;;4.40;3.10;;;;;;;7.29;61.63;99855.12;1685572;83;21566;-76
2022/04/20 04:06:23;;;;;;;5.53;3.70;;;;;;;7.33;61.56;99854.88;1686145;83;21056;-76
2022/04/20 04:08:52;;;;;;;7.03;3.67;;;;;;;7.34;61.56;99855.67;1685850;83;20968;-76
2022/04/20 04:11:19;;;;;;;5.12;3.50;;;;;;;7.38;61.63;99867.42;1638359;84;21069;-76
2022/04/20 04:13:46;;;;;;;4.62;3.30;;;;;;;7.44;61.28;99863.77;1670102;84;21090;-76
2022/04/20 04:16:15;;;;;;;4.65;3.22;;;;;;;7.45;61.14;99861.38;1697333;84;21566;-75
2022/04/20 04:18:43;;;;;;;4.62;3.35;;;;;;;7.50;61.09;99861.39;1690694;83;21050;-76
2022/04/20 04:21:12;;;;;;;5.12;3.70;;;;;;;7.55;60.90;99860.66;1684649;83;21063;-75
2022/04/20 04:23:40;;;;;;;4.85;3.20;;;;;;;7.60;60.92;99856.69;1653873;84;21138;-76
2022/04/20 04:26:11;;;;;;;5.00;3.80;;;;;;;7.68;60.80;99861.55;1663752;84;21133;-76
2022/04/20 04:28:40;;;;;;;5.35;3.40;;;;;;;7.73;60.13;99863.73;1683846;82;21142;-76
2022/04/20 04:31:08;;;;;;;5.22;3.80;;;;;;;7.77;59.90;99858.70;1659167;82;21178;-75
2022/04/20 04:33:37;;;;;;;5.85;3.92;;;;;;;7.80;59.69;99865.34;1689804;82;21556;-77
2022/04/20 04:36:05;;;;;;;5.50;3.62;;;;;;;7.82;59.75;99862.70;1693240;82;22382;-75
2022/04/20 04:38:36;;;;;;;4.85;3.47;;;;;;;7.89;59.59;99857.17;1665514;84;21123;-76
2022/04/20 04:41:04;;;;;;;5.97;3.98;;;;;;;7.92;59.08;99860.11;1686668;82;21674;-78
2022/04/20 04:43:33;;;;;;;5.50;3.90;;;;;;;7.93;58.90;99851.10;1684215;83;21024;-76
2022/04/20 04:48:49;;;;;;;5.00;3.55;;;;;;;8.03;58.33;99857.02;1677929;83;21070;-77
2022/04/20 04:51:16;;;;;;;4.95;3.70;;;;;;;8.05;58.32;99862.86;1689465;83;21019;-76
2022/04/20 04:53:45;;;;;;;5.12;3.52;;;;;;;8.08;58.45;99853.03;1674485;84;21627;-76
2022/04/20 04:56:14;;;;;;;5.72;3.80;;;;;;;8.15;58.02;99862.91;1666352;84;21075;-75
2022/04/20 04:58:44;;;;;;;5.10;4.10;;;;;;;8.16;57.92;99863.20;1685169;83;21135;-76
2022/04/20 05:01:13;;;;;;;5.30;3.70;;;;;;;8.21;58.12;99864.55;1683406;83;21070;-76
2022/04/20 05:03:40;;;;;;;6.25;3.70;;;;;;;8.32;58.13;99871.25;1680445;83;21078;-77
2022/04/20 05:06:10;;;;;;;5.95;3.70;;;;;;;8.42;57.76;99877.47;1695324;82;21785;-76
2022/04/20 05:08:40;;;;;;;;;;;;;;;8.51;57.57;99876.43;1609973;84;21094;-77
2022/04/20 05:11:08;;;;;;;5.42;3.92;;;;;;;8.59;57.19;99881.27;1689221;82;20477;-78
2022/04/20 05:13:37;;;;;;;5.22;3.87;;;;;;;8.60;56.67;99877.53;1668408;83;21130;-76
2022/04/20 05:16:08;;;;;;;;;;;;;;;8.66;56.80;99879.16;1691290;82;21151;-77
2022/04/20 05:18:36;;;;;;;6.00;4.50;;;;;;;8.72;56.39;99872.51;1690057;83;21392;-78
2022/04/20 05:21:07;;;;;;;6.28;4.30;;;;;;;8.71;55.86;99886.89;1659228;84;21039;-77
2022/04/20 05:23:36;;;;;;;5.75;4.25;;;;;;;8.67;56.04;99885.28;1689818;82;21174;-76
2022/04/20 05:26:05;;;;;;;6.33;4.70;;;;;;;8.66;55.84;99897.80;1677355;84;21475;-77
2022/04/20 05:28:34;;;;;;;6.60;4.25;;;;;;;8.64;55.66;99893.25;1699253;83;21075;-75
2022/04/20 05:31:01;;;;;;;6.53;4.62;;;;;;;8.64;55.76;99894.58;1649060;84;22000;-76
2022/04/20 05:33:31;;;;;;;8.48;4.47;;;;;;;8.67;55.61;99895.39;1644181;85;21067;-78
2022/04/20 05:35:59;;;;;;;6.20;4.03;;;;;;;8.65;55.54;99892.21;1673331;84;21119;-75
2022/04/20 05:43:54;;;;;;;6.83;4.40;;;;;;;8.77;55.93;99914.61;1687022;82;21134;-76
2022/04/20 05:46:24;;;;;;;5.55;3.58;;;;;;;8.80;55.41;99914.63;1693228;83;21091;-78
2022/04/20 05:48:59;;;;;;;6.83;4.78;;;;;;;8.83;55.46;99911.44;1705800;83;21519;-78
2022/04/20 05:51:28;;;;;;;6.47;4.30;;;;;;;8.92;55.61;99917.87;1699983;83;20989;-77
2022/04/20 05:53:55;;;;;;;5.28;4.00;;;;;;;9.03;55.56;99917.36;1700769;83;21054;-77
2022/04/20 05:56:22;;;;;;;5.55;4.08;;;;;;;9.15;55.19;99908.08;1682465;83;21220;-78
2022/04/20 05:58:52;;;;;;;5.87;4.10;;;;;;;9.25;54.88;99903.84;1681466;83;21087;-76
2022/04/20 06:01:22;;;;;;;5.78;4.42;;;;;;;9.30;54.47;99905.16;1679379;83;21091;-78
2022/04/20 06:04:00;;;;;;;5.72;4.45;;;;;;;9.36;54.12;99906.23;1657317;83;21070;-78
2022/04/20 06:06:33;;;;;;;6.62;4.50;;;;;;;9.35;53.84;99913.18;1679202;83;21620;-77
2022/04/20 06:09:04;;;;;;;6.37;4.15;;;;;;;9.35;53.98;99919.31;1689356;83;20964;-77
2022/04/20 06:11:53;;;;;;;5.97;4.28;;;;;;;9.38;54.11;99909.45;1683059;83;21020;-77
2022/04/20 06:14:22;;;;;;;5.10;3.65;;;;;;;9.43;53.55;99915.84;1687016;82;21058;-77
2022/04/20 06:16:53;;;;;;;6.30;4.28;;;;;;;9.37;53.37;99911.03;1691958;82;21098;-77
2022/04/20 06:19:32;;;;;;;6.22;4.05;;;;;;;9.28;53.55;99909.44;1654533;84;21132;-77
2022/04/20 06:22:19;;;;;;;4.97;3.60;;;;;;;9.29;53.65;99913.70;1658424;84;21423;-77
2022/04/20 06:24:55;;;;;;;5.75;4.50;;;;;;;9.32;53.78;99911.05;1665058;83;21785;-77
2022/04/20 06:27:30;;;;;;;6.08;4.20;;;;;;;9.31;53.77;99905.42;1658592;84;21070;-78
2022/04/20 06:30:16;;;;;;;5.92;4.05;;;;;;;9.36;53.95;99914.77;1685633;83;21126;-76
2022/04/20 06:33:04;;;;;;;5.62;3.77;;;;;;;9.47;53.99;99915.58;1688324;83;21139;-77
2022/04/20 06:35:52;;;;;;;7.03;4.00;;;;;;;9.53;53.51;99919.85;1663772;84;21122;-75
2022/04/20 06:38:23;;;;;;;;;;;;;;;9.51;53.50;99913.47;1634374;84;21455;-78
2022/04/20 06:41:08;;;;;;;5.28;3.65;;;;;;;9.53;53.49;99904.66;1685243;82;20231;-77
2022/04/20 06:43:57;;;;;;;5.85;4.15;;;;;;;9.50;53.12;99906.52;1683490;83;21146;-77
2022/04/20 06:46:33;;;;;;;5.87;4.10;;;;;;;9.48;53.27;99910.00;1631860;84;21390;-77
2022/04/20 06:49:20;;;;;;;6.47;4.40;;;;;;;9.47;53.42;99906.25;1691065;82;21629;-76
2022/04/20 07:00:27;;;;;;;5.85;4.33;;;;;;;9.71;53.08;99910.55;1684025;83;21043;-77
2022/04/20 07:03:09;;;;;;;5.22;3.77;;;;;;;9.68;53.08;99913.74;1685013;83;21180;-78
2022/04/20 07:05:54;;;;;;;6.65;4.65;;;;;;;9.66;52.79;99913.20;1661196;84;20976;-77
2022/04/20 07:08:25;;;;;;;4.90;3.72;;;;;;;9.62;52.96;99909.73;1697844;82;21022;-76
2022/04/20 07:10:55;;;;;;;5.97;4.58;;;;;;;9.67;53.04;99910.80;1687188;83;29132;-76
2022/04/20 07:13:25;;;;;;;6.60;4.83;;;;;;;9.66;53.10;99914.53;1690926;84;21116;-76
2022/04/20 07:15:52;;;;;;;6.72;5.28;;;;;;;9.69;52.98;99916.67;1691449;82;21219;-77
2022/04/20 07:18:21;;;;;;;8.30;5.10;;;;;;;9.79;52.94;99914.00;1686971;83;21106;-77
2022/04/20 07:21:06;;;;;;;5.97;4.20;;;;;;;9.91;52.87;99907.87;1691957;82;21084;-76
2022/04/20 07:23:45;;;;;;;6.35;4.92;;;;;;;9.97;52.34;99892.64;1655994;83;21293;-77
2022/04/20 07:26:15;;;;;;;5.53;4.40;;;;;;;9.94;52.36;99889.99;1683261;83;21108;-77
2022/04/20 07:28:48;;;;;;;6.67;4.83;;;;;;;9.94;52.44;99883.86;1660439;85;20991;-75
2022/04/20 07:31:23;;;;;;;6.20;4.55;;;;;;;10.00;52.61;99883.59;1648175;84;20960;-76
2022/04/20 07:34:08;;;;;;;6.05;4.40;;;;;;;10.13;52.37;99881.41;1694674;83;21727;-76
2022/04/20 07:36:51;;;;;;;7.45;4.83;;;;;;;10.24;52.17;99874.45;1703722;83;21029;-76
2022/04/20 07:39:32;;;;;;;5.40;4.30;;;;;;;10.30;52.00;99870.73;1659250;83;20976;-76
2022/04/20 07:42:05;;;;;;;5.95;4.17;;;;;;;10.38;51.53;99869.37;1686400;83;21681;-78
2022/04/20 07:44:54;;;;;;;6.40;4.50;;;;;;;10.45;51.21;99866.41;1684185;83;21068;-76
2022/04/20 07:47:25;;;;;;;5.15;3.70;;;;;;;10.51;50.92;99867.98;1658854;83;21671;-76
2022/04/20 07:53:00;;;;;;;6.12;4.30;;;;;;;10.52;50.65;99866.37;1643521;84;21548;-78
2022/04/20 07:55:34;;;;;;;6.33;4.78;;;;;;;10.48;50.64;99865.32;1684774;83;21156;-77
2022/04/20 07:58:05;;;;;;;6.12;4.37;;;;;;;10.56;50.51;99860.77;1684529;83;21046;-75
2022/04/20 08:00:49;;;;;;;6.33;4.67;;;;;;;10.64;50.12;99863.39;1668815;84;21139;-77
2022/04/20 08:03:33;;;;;;;6.15;4.45;;;;;;;10.74;50.50;99862.55;1657384;84;21674;-75
2022/04/20 08:06:01;;;;;;;5.50;4.37;;;;;;;10.93;50.24;99862.73;1695401;82;21535;-76
2022/04/20 08:08:30;;;;;;;6.10;4.70;;;;;;;11.09;49.84;99862.07;1699434;82;21313;-76
2022/04/20 08:10:59;;;;;;;5.90;4.83;;;;;;;11.25;49.97;99859.56;1667251;85;21691;-77
2022/04/20 08:16:15;;;;;;;6.07;4.33;;;;;;;11.14;48.58;99860.72;1686207;83;21216;-78
2022/04/20 08:19:02;;;;;;;5.63;4.20;;;;;;;10.89;48.99;99855.80;1648071;84;21359;-77
2022/04/20 08:21:31;;;;;;;6.30;4.70;;;;;;;10.86;49.56;99858.20;1686098;83;21696;-78
2022/04/20 08:23:59;;;;;;;6.10;4.50;;;;;;;10.89;49.44;99854.98;1695971;83;21292;-76
2022/04/20 08:26:26;;;;;;;6.30;4.60;;;;;;;10.99;49.61;99846.90;1684445;84;21231;-78
2022/04/20 08:28:53;;;;;;;7.03;4.70;;;;;;;11.17;49.42;99854.27;1677815;84;21362;-78
2022/04/20 08:31:21;;;;;;;6.50;4.77;;;;;;;11.32;49.09;99855.23;1685158;83;21809;-78
2022/04/20 08:33:47;;;;;;;7.17;4.80;;;;;;;11.44;49.04;99854.34;1702790;84;22009;-77
2022/04/20 08:36:16;;;;;;;5.77;4.37;;;;;;;11.55;48.58;99853.72;1693665;83;21247;-76
2022/04/20 08:38:44;;;;;;;5.17;4.10;;;;;;;11.48;48.18;99854.86;1652640;84;21819;-77
2022/04/20 08:41:16;;;;;;;5.57;4.30;;;;;;;11.43;48.21;99850.88;1659693;84;21396;-77
2022/04/20 08:43:42;;;;;;;7.30;5.07;;;;;;;11.43;48.43;99860.23;1685233;84;21189;-77
2022/04/20 08:46:10;;;;;;;6.87;5.00;;;;;;;11.53;48.52;99866.05;1666042;84;21770;-75
2022/04/20 08:48:39;;;;;;;6.40;4.77;;;;;;;11.58;47.93;99855.32;1673207;83;21297;-75
2022/04/20 08:51:06;;;;;;;5.33;4.53;;;;;;;11.48;48.00;99859.39;1689556;83;21355;-76
2022/04/20 08:53:35;;;;;;;6.90;4.73;;;;;;;11.51;48.25;99857.50;1686081;83;37794;-75
2022/04/20 08:58:50;;;;;;;6.50;4.90;;;;;;;11.57;47.71;99863.06;1685358;83;21417;-77
2022/04/20 09:01:19;;;;;;;6.20;5.10;;;;;;;11.48;48.03;99864.22;1678941;83;21982;-76
2022/04/20 09:03:46;;;;;;;6.23;4.33;;;;;;;11.49;48.10;99864.47;1683614;83;21307;-77
2022/04/20 09:06:15;;;;;;;4.87;4.13;;;;;;;11.54;48.34;99864.17;1681292;83;21286;-77
2022/04/20 09:08:43;;;;;;;7.63;4.40;;;;;;;11.68;48.09;99866.45;1685804;83;21091;-76
2022/04/20 09:11:11;;;;;;;6.20;4.40;;;;;;;11.73;47.92;99866.41;1688007;84;21369;-76
2022/04/20 09:13:45;;;;;;;6.80;4.97;;;;;;;11.72;47.87;99864.83;1696228;84;21297;-75
2022/04/20 09:16:13;;;;;;;6.10;4.20;;;;;;;11.63;47.74;99870.52;1690209;83;21182;-76
2022/04/20 09:18:43;;;;;;;5.80;4.80;;;;;;;11.51;48.15;99874.34;1655087;84;21158;-77
2022/04/20 09:21:17;;;;;;;5.83;4.50;;;;;;;11.53;48.31;99870.60;1665885;84;21247;-76
2022/04/20 09:23:46;;;;;;;5.53;4.33;;;;;;;11.61;48.39;99867.31;1689096;83;21333;-74
2022/04/20 09:26:15;;;;;;;5.33;4.30;;;;;;;11.76;48.41;99863.17;1681762;83;21339;-76
2022/04/20 09:29:08;;;;;;;6.33;4.23;;;;;;;11.90;48.02;99867.36;1680101;83;21543;-75
2022/04/20 09:31:45;;;;;;;6.03;4.37;;;;;;;12.01;47.67;99871.55;1675805;83;28353;-75
2022/04/20 09:34:33;;;;;;;6.50;4.47;;;;;;;12.01;47.29;99872.06;1671026;85;21534;-75
2022/04/20 09:37:13;;;;;;;4.80;3.63;;;;;;;11.85;47.38;99868.22;1682429;82;21349;-75
2022/04/20 09:39:46;;;;;;;5.73;3.80;;;;;;;11.85;47.82;99870.09;1693881;82;21201;-76
2022/04/20 09:42:13;;;;;;;5.00;3.63;;;;;;;11.91;47.52;99867.09;1559114;83;10000530;-77
2022/04/20 09:44:59;;;;;;;5.23;3.47;;;;;;;11.95;47.68;99865.44;1695670;83;21160;-77
2022/04/20 09:50:26;;;;;;;5.83;4.20;;;;;;;12.08;47.40;99863.97;1700238;83;22250;-77
2022/04/20 09:52:59;;;;;;;6.50;4.35;;;;;;;12.22;47.38;99859.28;1700460;83;21262;-77
2022/04/20 09:55:31;;;;;;;6.67;4.37;;;;;;;12.27;47.08;99857.88;1698027;83;21137;-78
2022/04/20 09:58:11;;;;;;;6.97;4.37;;;;;;;12.12;46.78;99862.32;1665779;86;21370;-77
2022/04/20 10:00:42;;;;;;;5.80;4.30;;;;;;;11.92;47.03;99862.53;1694204;84;21300;-78
2022/04/20 10:03:11;;;;;;;4.80;3.50;;;;;;;11.86;47.86;99864.45;1695228;82;21285;-77
2022/04/20 10:05:38;;;;;;;6.13;3.97;;;;;;;11.86;47.54;99864.45;1672972;84;21373;-76
2022/04/20 10:08:05;;;;;;;8.10;4.60;;;;;;;11.86;47.97;99864.45;1681441;83;21695;-77
2022/04/20 10:10:35;;;;;;;6.03;3.77;;;;;;;11.91;47.70;99860.40;1710908;82;21889;-76
2022/04/20 10:13:04;;;;;;;5.10;3.50;;;;;;;12.03;48.08;99858.66;1703740;83;21361;-77
2022/04/20 10:18:21;;;;;;;4.87;3.53;;;;;;;12.27;47.36;99866.70;1678785;84;21251;-77
2022/04/20 10:20:52;;;;;;;4.80;3.37;;;;;;;12.28;47.11;99870.20;1695050;82;21230;-77
2022/04/20 10:23:21;;;;;;;3.83;2.83;;;;;;;12.25;46.73;99874.78;1695183;83;21850;-76
2022/04/20 10:25:51;;;;;;;3.87;2.93;;;;;;;12.14;47.44;99869.54;1700146;82;21392;-77
2022/04/20 10:28:42;;;;;;;4.43;2.93;;;;;;;12.15;47.72;99880.49;1699502;83;21401;-77
2022/04/20 10:31:53;;;;;;;4.03;2.83;;;;;;;12.22;47.40;99886.84;1708579;83;21495;-76
2022/04/20 10:34:21;;;;;;;4.60;3.23;;;;;;;12.38;47.17;99887.48;1694305;84;21298;-75
2022/04/20 10:37:01;;;;;;;4.00;2.70;;;;;;;12.57;46.82;99891.02;1693334;83;21507;-76
2022/04/20 10:39:34;;;;;;;4.00;2.67;;;;;;;12.75;46.43;99893.47;1692062;82;21332;-76
2022/04/20 10:42:16;;;;;;;3.73;2.67;;;;;;;12.76;45.90;99894.26;1691978;84;21363;-75
2022/04/20 10:45:01;;;;;;;3.77;2.70;;;;;;;12.98;46.77;99885.13;1704025;82;21369;-74
2022/04/20 10:47:42;;;;;;;4.60;2.70;;;;;;;12.98;46.77;99885.13;1698443;83;21378;-75
2022/04/20 10:50:23;;;;;;;4.40;3.00;;;;;;;13.18;45.69;99883.25;1699175;83;21628;-76
2022/04/20 10:55:36;;;;;;;4.60;3.00;;;;;;;13.29;44.89;99894.92;1695700;83;21486;-75
2022/04/20 10:58:07;;;;;;;3.80;2.60;;;;;;;13.25;44.50;99897.11;1697164;83;21431;-76
2022/04/20 11:00:37;;;;;;;3.40;2.30;;;;;;;13.05;44.98;99898.97;1693796;84;21641;-74
2022/04/20 11:03:06;;;;;;;3.47;2.40;;;;;;;12.89;45.12;99893.55;1696629;84;21059;-75
2022/04/20 11:05:54;;;;;;;3.20;2.10;;;;;;;12.65;45.50;99893.59;1666442;84;21367;-76
2022/04/20 11:08:23;;;;;;;4.37;2.07;;;;;;;12.41;45.65;99894.41;1695138;84;21372;-77
2022/04/20 11:19:58;;;;;;;4.50;2.60;;;;;;;11.96;47.02;99888.98;1703719;82;21283;-75
2022/04/20 11:22:28;;;;;;;3.50;2.50;;;;;;;11.97;47.23;99886.01;1690679;82;21946;-76
2022/04/20 11:25:02;;;;;;;4.07;2.70;;;;;;;12.09;47.26;99887.52;1689337;82;21248;-75
2022/04/20 11:27:37;;;;;;;4.33;2.87;;;;;;;12.10;46.85;99889.91;1664869;84;21133;-76
2022/04/20 11:30:05;;;;;;;4.40;2.90;;;;;;;11.97;46.94;99887.34;1658262;84;21248;-75
2022/04/20 11:32:34;;;;;;;4.17;2.80;;;;;;;11.90;47.23;99878.86;1709697;83;21381;-76
2022/04/20 11:35:07;;;;;;;3.67;2.27;;;;;;;11.91;47.02;99867.09;1705789;83;21445;-75
2022/04/20 11:37:34;;;;;;;3.77;2.60;;;;;;;12.00;47.34;99865.13;1694052;84;21300;-76
2022/04/20 11:40:15;;;;;;;4.50;2.67;;;;;;;12.15;47.22;99859.62;1694395;84;21122;-76
2022/04/20 11:42:41;;;;;;;4.43;2.70;;;;;;;12.35;46.69;99859.94;1686203;84;21301;-75
2022/04/20 11:45:11;;;;;;;2.87;2.07;;;;;;;12.48;46.74;99851.21;1682191;83;21378;-75
2022/04/20 11:47:39;;;;;;;3.30;2.30;;;;;;;12.71;46.67;99847.45;1690023;83;21323;-75
2022/04/20 11:50:08;;;;;;;3.50;2.53;;;;;;;12.86;46.14;99839.97;1673076;83;21433;-75
2022/04/20 11:52:59;;;;;;;3.65;2.52;;;;;;;12.94;45.14;99831.05;1653730;84;21312;-76
2022/04/20 11:55:34;;;;;;;3.90;2.50;;;;;;;12.81;45.42;99826.66;1666045;84;21570;-77
2022/04/20 11:58:15;;;;;;;3.67;2.47;;;;;;;12.86;45.60;99830.59;1667650;84;21103;-75
2022/04/20 12:00:44;;;;;;;3.77;2.53;;;;;;;12.95;45.55;99829.96;1551360;83;10000340;-76
2022/04/20 12:03:12;;;;;;;4.00;2.10;;;;;;;13.12;45.53;99828.89;1670032;84;21252;-76
2022/04/20 12:05:40;;;;;;;4.07;2.50;;;;;;;13.34;45.06;99828.33;1723560;82;21352;-76
2022/04/20 12:08:10;;;;;;;3.72;2.55;;;;;;;13.42;44.68;99828.98;1690008;84;21347;-77
2022/04/20 12:10:39;;;;;;;3.50;2.10;;;;;;;13.55;44.65;99820.72;1696602;84;21129;-76
2022/04/20 12:13:07;;;;;;;3.33;2.40;;;;;;;13.58;43.32;99814.22;1664854;84;21348;-75
2022/04/20 12:15:35;;;;;;;3.87;2.40;;;;;;;13.58;43.32;99814.22;1666651;83;21417;-75
2022/04/20 12:18:06;;;;;;;3.60;2.40;;;;;;;13.44;43.70;99815.29;1693878;84;21519;-76
2022/04/20 12:20:35;;;;;;;3.30;2.43;;;;;;;13.30;44.09;99806.66;1694708;83;21387;-76
2022/04/20 12:23:06;;;;;;;3.93;2.80;;;;;;;13.30;44.09;99806.66;1694095;84;21439;-76
2022/04/20 12:25:35;;;;;;;3.80;2.60;;;;;;;13.13;44.44;99821.13;1706676;83;21633;-77
2022/04/20 12:28:35;;;;;;;4.07;2.83;;;;;;;13.13;44.44;99821.13;1702471;83;21487;-77
2022/04/20 12:30:37;;;;;;;3.67;2.33;;;;;;;13.22;44.41;99824.71;1677681;83;21518;-77
2022/04/20 12:33:07;;;;;;;4.20;2.90;;;;;;;13.33;44.41;99824.84;1693617;83;21971;-76
2022/04/20 12:35:33;;;;;;;4.23;2.80;;;;;;;13.35;44.22;99825.88;1690982;83;21492;-76
2022/04/20 12:38:07;;;;;;;5.40;3.40;;;;;;;13.21;43.91;99825.81;1691797;84;22122;-75
2022/04/20 12:40:36;;;;;;;4.30;3.00;;;;;;;13.21;43.91;99825.81;1723819;83;21554;-75
2022/04/20 12:43:07;;;;;;;4.73;3.07;;;;;;;13.14;44.09;99825.38;1696724;83;21155;-75
2022/04/20 12:45:37;;;;;;;3.83;2.93;;;;;;;13.10;44.04;99823.83;1694200;84;21362;-74